Time;durP1;ratioP1;P1;durP2;ratioP2;P2;SDS_P1;SDS_P2;PMS_P1;PMS_P2;Temp;Humidity;BMP_temperature;BMP_pressure;BME280_temperature;BME280_humidity;BME280_pressure;Samples;Min_cycle;Max_cycle;Signal;HPM_P1;HPM_P2
2021/04/14 00:02:10;;;;;;;3.17;1.50;;;;;;;1.11;79.96;101930.94;5004514;28;20232;-81
2021/04/14 00:04:37;;;;;;;6.40;1.70;;;;;;;1.06;80.80;101929.88;5003714;28;20215;-81
2021/04/14 00:07:03;;;;;;;2.77;1.47;;;;;;;0.96;80.76;101921.75;5003455;28;20324;-81
2021/04/14 00:09:30;;;;;;;4.53;1.53;;;;;;;0.99;80.98;101919.34;5003523;28;20231;-81
2021/04/14 00:11:57;;;;;;;5.30;1.40;;;;;;;1.04;80.38;101922.09;5002505;28;20242;-81
2021/04/14 00:14:24;;;;;;;2.37;1.33;;;;;;;1.04;80.74;101918.66;5003027;28;20215;-81
2021/04/14 00:16:50;;;;;;;2.43;1.47;;;;;;;1.02;80.73;101922.84;5002955;28;20682;-81
2021/04/14 00:19:16;;;;;;;2.90;1.60;;;;;;;1.08;80.43;101915.41;5003482;28;20276;-81
2021/04/14 00:21:42;;;;;;;4.47;1.50;;;;;;;1.10;80.25;101921.50;5002789;28;20729;-81
2021/04/14 00:24:10;;;;;;;6.17;1.57;;;;;;;1.15;80.23;101923.44;5003206;28;20275;-81
2021/04/14 00:26:37;;;;;;;3.87;1.50;;;;;;;1.19;80.36;101917.63;5002818;28;20499;-81
2021/04/14 00:29:03;;;;;;;4.20;1.70;;;;;;;1.18;81.09;101920.13;5004050;28;20231;-81
2021/04/14 00:31:35;;;;;;;2.90;1.13;;;;;;;1.24;80.65;101916.94;5003315;28;20660;-82
2021/04/14 00:34:04;;;;;;;3.30;1.30;;;;;;;1.25;80.05;101922.16;5003218;28;20212;-81
2021/04/14 00:36:29;;;;;;;4.60;1.20;;;;;;;1.23;80.21;101918.63;5003513;28;20211;-81
2021/04/14 00:38:55;;;;;;;3.90;1.30;;;;;;;1.11;80.19;101916.41;5003033;28;20342;-81
2021/04/14 00:41:21;;;;;;;4.13;1.40;;;;;;;1.05;81.33;101912.69;5003117;28;20300;-81
2021/04/14 00:43:48;;;;;;;7.27;1.43;;;;;;;1.00;81.21;101915.06;5003399;28;20208;-81
2021/04/14 00:46:14;;;;;;;3.67;2.37;;;;;;;0.99;81.61;101916.75;5003284;28;20212;-81
2021/04/14 00:48:40;;;;;;;5.17;2.33;;;;;;;0.97;81.22;101913.25;5003991;28;20217;-81
2021/04/14 00:51:07;;;;;;;2.50;1.37;;;;;;;1.04;81.68;101911.81;5003686;28;20231;-81
2021/04/14 00:53:33;;;;;;;2.60;1.33;;;;;;;0.96;81.38;101916.59;5002812;28;20207;-81
2021/04/14 00:55:59;;;;;;;3.77;2.40;;;;;;;0.96;81.65;101918.31;5004344;28;20250;-82
2021/04/14 00:58:25;;;;;;;2.50;1.30;;;;;;;0.95;81.52;101914.88;5004470;28;20211;-81
2021/04/14 01:00:54;;;;;;;4.43;1.90;;;;;;;0.93;81.67;101918.16;5004529;28;20215;-81
2021/04/14 01:03:22;;;;;;;4.37;1.87;;;;;;;0.99;82.26;101916.75;5002918;28;20223;-81
2021/04/14 01:05:49;;;;;;;4.37;1.83;;;;;;;1.02;81.83;101912.56;5004285;28;20208;-81
2021/04/14 01:08:16;;;;;;;4.77;1.40;;;;;;;1.08;81.71;101915.41;5003215;28;20204;-81
2021/04/14 01:10:42;;;;;;;3.73;1.60;;;;;;;1.09;81.53;101912.91;5003706;28;20231;-81
2021/04/14 01:13:08;;;;;;;4.27;1.43;;;;;;;1.17;81.28;101923.53;5002942;28;20231;-81
2021/04/14 01:15:38;;;;;;;4.23;2.63;;;;;;;1.26;80.93;101915.31;5003275;28;20211;-82
2021/04/14 01:18:06;;;;;;;3.23;1.37;;;;;;;1.31;82.11;101911.22;5003368;28;20273;-80
2021/04/14 01:20:33;;;;;;;4.17;1.20;;;;;;;1.31;81.28;101914.69;5003917;28;20208;-81
2021/04/14 01:23:00;;;;;;;2.60;1.37;;;;;;;1.38;81.56;101911.56;5002897;28;20231;-81
2021/04/14 01:25:36;;;;;;;3.80;1.70;;;;;;;1.39;81.02;101902.16;5003288;28;20211;-81
2021/04/14 01:28:04;;;;;;;4.27;1.87;;;;;;;1.43;80.31;101904.06;5002951;28;20213;-81
2021/04/14 01:30:30;;;;;;;3.13;2.00;;;;;;;1.45;81.20;101906.66;5004165;28;20487;-81
2021/04/14 01:32:57;;;;;;;4.20;1.50;;;;;;;1.44;81.08;101900.66;5003705;28;20228;-81
2021/04/14 01:35:25;;;;;;;5.77;1.47;;;;;;;1.35;81.13;101902.84;5003983;28;20208;-81
2021/04/14 01:37:52;;;;;;;4.97;1.83;;;;;;;1.36;80.51;101904.59;5003285;28;20211;-81
2021/04/14 01:40:21;;;;;;;2.67;1.30;;;;;;;1.32;81.22;101908.72;5002929;28;20203;-81
2021/04/14 01:42:48;;;;;;;2.10;1.40;;;;;;;1.32;81.15;101908.72;5002720;28;20227;-82
2021/04/14 01:45:16;;;;;;;2.60;1.20;;;;;;;1.27;80.89;101909.34;5003200;28;20204;-81
2021/04/14 01:47:42;;;;;;;2.63;1.30;;;;;;;1.26;80.88;101905.91;5004169;28;20218;-81
2021/04/14 01:50:09;;;;;;;7.77;1.80;;;;;;;1.26;81.28;101911.03;5002894;28;20228;-81
2021/04/14 01:52:35;;;;;;;2.70;1.47;;;;;;;1.33;81.12;101907.06;5002859;28;20223;-80
2021/04/14 01:55:03;;;;;;;3.17;1.53;;;;;;;1.31;80.62;101912.13;5004213;28;20996;-80
2021/04/14 01:57:29;;;;;;;5.23;1.53;;;;;;;1.24;81.08;101909.22;5002559;28;20215;-81
2021/04/14 01:59:55;;;;;;;3.27;1.30;;;;;;;1.19;81.65;101909.91;5003852;28;20212;-81
2021/04/14 02:02:22;;;;;;;9.10;2.23;;;;;;;1.06;81.48;101907.59;5002888;28;20255;-80
2021/04/14 02:04:50;;;;;;;6.23;2.40;;;;;;;1.12;80.99;101915.59;5003562;28;20227;-81
2021/04/14 02:07:15;;;;;;;3.40;1.40;;;;;;;1.03;81.64;101911.72;5004015;28;20203;-81
2021/04/14 02:09:41;;;;;;;4.93;1.60;;;;;;;0.93;81.88;101915.59;5003176;28;20235;-81
2021/04/14 02:12:09;;;;;;;5.23;1.63;;;;;;;0.99;82.01;101913.28;5002213;28;20299;-81
2021/04/14 02:14:36;;;;;;;3.33;1.53;;;;;;;1.03;81.70;101910.06;5003080;28;20212;-82
2021/04/14 02:17:02;;;;;;;2.20;1.53;;;;;;;1.09;81.92;101906.84;5003573;28;20211;-82
2021/04/14 02:19:28;;;;;;;3.63;1.63;;;;;;;1.04;81.52;101910.94;5003465;28;20464;-81
2021/04/14 02:21:54;;;;;;;3.07;1.53;;;;;;;1.01;82.17;101908.22;5003047;28;20240;-81
2021/04/14 02:24:20;;;;;;;3.20;1.53;;;;;;;1.07;81.84;101909.38;5005711;28;20204;-81
2021/04/14 02:26:46;;;;;;;6.20;1.77;;;;;;;1.08;82.17;101911.13;5007381;28;20211;-81
2021/04/14 02:29:12;;;;;;;2.67;1.77;;;;;;;1.03;81.62;101916.88;5007821;28;20304;-81
2021/04/14 02:31:39;;;;;;;3.53;1.73;;;;;;;0.94;82.55;101912.22;5005256;28;20212;-81
2021/04/14 02:34:08;;;;;;;2.93;1.73;;;;;;;0.97;82.17;101905.53;5006569;28;20203;-81
2021/04/14 02:36:34;;;;;;;3.43;1.87;;;;;;;0.89;82.48;101903.41;5006188;28;20219;-81
2021/04/14 02:39:00;;;;;;;6.43;2.27;;;;;;;0.92;82.45;101907.00;5007082;28;20218;-81
2021/04/14 02:41:26;;;;;;;5.87;2.10;;;;;;;0.91;82.33;101897.56;5006460;28;20233;-81
2021/04/14 02:43:54;;;;;;;3.93;1.90;;;;;;;0.87;82.67;101908.47;5005850;28;20191;-81
2021/04/14 02:46:21;;;;;;;3.33;1.90;;;;;;;0.90;82.69;101895.78;5007088;28;20207;-81
2021/04/14 02:48:47;;;;;;;3.43;2.00;;;;;;;0.85;82.87;101893.81;5005482;28;20212;-81
2021/04/14 02:51:13;;;;;;;3.87;2.10;;;;;;;0.87;82.67;101892.19;5006480;28;20242;-81
2021/04/14 02:53:39;;;;;;;6.47;1.83;;;;;;;0.80;82.36;101898.75;5005691;28;20235;-82
2021/04/14 02:56:06;;;;;;;3.57;2.63;;;;;;;0.75;82.61;101885.72;5006001;28;20332;-81
2021/04/14 02:58:31;;;;;;;2.77;2.33;;;;;;;0.66;83.23;101887.88;5005912;28;20227;-81
2021/04/14 03:00:57;;;;;;;3.67;2.37;;;;;;;0.57;83.51;101882.31;5006537;28;20194;-81
2021/04/14 03:03:26;;;;;;;4.33;2.23;;;;;;;0.49;83.90;101883.66;5004589;28;20390;-81
2021/04/14 03:05:54;;;;;;;5.93;2.50;;;;;;;0.50;83.76;101885.41;5006115;28;20219;-81
2021/04/14 03:08:20;;;;;;;3.80;2.00;;;;;;;0.50;84.41;101885.41;5005304;28;20215;-80
2021/04/14 03:10:46;;;;;;;4.80;2.10;;;;;;;0.46;84.30;101880.97;5005741;28;20258;-81
2021/04/14 03:13:13;;;;;;;7.47;2.13;;;;;;;0.43;84.61;101875.66;5005280;28;20227;-81
2021/04/14 03:15:40;;;;;;;2.70;1.77;;;;;;;0.42;84.40;101884.16;5005981;28;20215;-81
2021/04/14 03:18:07;;;;;;;2.97;2.47;;;;;;;0.50;84.55;101880.28;5004485;28;20234;-81
2021/04/14 03:20:33;;;;;;;3.47;2.03;;;;;;;0.49;84.03;101881.06;5004987;28;20203;-81
2021/04/14 03:23:00;;;;;;;4.50;2.07;;;;;;;0.48;84.04;101880.22;5004232;28;20229;-81
2021/04/14 03:25:31;;;;;;;4.17;2.10;;;;;;;0.44;84.30;101878.31;5005659;28;20208;-81
2021/04/14 03:27:57;;;;;;;5.20;2.23;;;;;;;0.41;84.33;101879.84;5005019;28;20220;-82
2021/04/14 03:30:23;;;;;;;4.27;2.10;;;;;;;0.42;84.35;101881.59;5004711;28;20333;-81
2021/04/14 03:32:49;;;;;;;4.43;2.60;;;;;;;0.36;84.65;101883.09;5004153;28;20227;-82
2021/04/14 03:35:17;;;;;;;2.83;2.20;;;;;;;0.31;84.29;101876.84;5005427;28;20713;-81
2021/04/14 03:37:44;;;;;;;2.07;1.87;;;;;;;0.26;84.61;101870.66;5004428;28;20215;-82
2021/04/14 03:40:12;;;;;;;5.80;2.63;;;;;;;0.22;84.77;101879.03;5004986;28;20207;-81
2021/04/14 03:42:38;;;;;;;5.27;2.40;;;;;;;0.22;85.01;101880.69;5004362;28;20231;-81
2021/04/14 03:45:11;;;;;;;5.07;2.30;;;;;;;0.24;85.45;101873.94;5005598;28;20214;-81
2021/04/14 03:47:37;;;;;;;5.93;2.90;;;;;;;0.24;85.56;101877.41;5004643;28;20211;-81
2021/04/14 03:50:04;;;;;;;3.60;2.20;;;;;;;0.26;85.56;101875.78;5004383;28;20266;-81
2021/04/14 03:52:30;;;;;;;3.33;2.53;;;;;;;0.30;85.38;101876.81;5004698;28;20397;-81
2021/04/14 03:54:56;;;;;;;4.63;2.80;;;;;;;0.29;85.50;101877.59;5006262;28;20218;-81
2021/04/14 03:57:23;;;;;;;4.03;2.50;;;;;;;0.31;85.83;101879.41;5004350;28;20643;-81
2021/04/14 03:59:49;;;;;;;4.63;2.73;;;;;;;0.36;85.47;101877.09;5005835;28;20227;-81
2021/04/14 04:02:15;;;;;;;4.60;2.00;;;;;;;0.36;85.47;101877.97;5004469;28;20228;-81
2021/04/14 04:04:41;;;;;;;6.33;2.40;;;;;;;0.34;85.64;101877.00;5004965;28;20244;-81
2021/04/14 04:07:07;;;;;;;3.57;3.00;;;;;;;0.31;85.86;101879.41;5004564;28;20212;-82
2021/04/14 04:09:32;;;;;;;7.33;2.67;;;;;;;0.33;85.97;101879.50;5004418;28;20943;-81
2021/04/14 04:11:58;;;;;;;2.77;2.57;;;;;;;0.30;86.00;101882.81;5004600;28;20239;-82
2021/04/14 04:14:28;;;;;;;6.10;2.97;;;;;;;0.28;86.06;101875.81;5004612;28;20239;-82
2021/04/14 04:16:54;;;;;;;5.60;2.60;;;;;;;0.32;85.85;101875.19;5004908;28;20201;-81
2021/04/14 04:19:20;;;;;;;6.90;3.20;;;;;;;0.29;86.02;101882.75;5004163;28;20227;-82
2021/04/14 04:21:46;;;;;;;4.37;3.57;;;;;;;0.32;86.08;101880.31;5003606;28;20311;-81
2021/04/14 04:24:12;;;;;;;3.57;2.87;;;;;;;0.37;85.97;101877.13;5003446;28;20215;-81
2021/04/14 04:26:38;;;;;;;4.97;3.30;;;;;;;0.45;85.86;101884.31;5004663;28;20382;-81
2021/04/14 04:29:04;;;;;;;8.63;2.83;;;;;;;0.46;86.13;101880.97;5006640;28;20218;-81
2021/04/14 04:31:31;;;;;;;6.77;3.87;;;;;;;0.44;86.30;101886.03;5005779;28;20295;-81
2021/04/14 04:33:57;;;;;;;7.00;3.40;;;;;;;0.46;86.47;101884.41;5007106;28;20216;-81
2021/04/14 04:36:23;;;;;;;5.43;3.57;;;;;;;0.50;86.15;101888.00;5007129;28;20207;-81
2021/04/14 04:38:49;;;;;;;6.43;3.27;;;;;;;0.53;86.18;101894.13;5007513;28;20203;-83
2021/04/14 04:41:15;;;;;;;5.03;2.90;;;;;;;0.58;85.69;101896.91;5007330;28;20226;-82
2021/04/14 04:43:43;;;;;;;6.17;3.33;;;;;;;0.61;85.41;101897.03;5005986;28;20287;-82
2021/04/14 04:46:09;;;;;;;4.47;3.60;;;;;;;0.60;85.54;101903.00;5005743;28;20203;-82
2021/04/14 04:48:36;;;;;;;4.00;3.17;;;;;;;0.50;85.17;101898.25;5006469;28;20204;-82
2021/04/14 04:51:01;;;;;;;5.00;3.50;;;;;;;0.48;85.88;101905.91;5005294;28;20227;-82
2021/04/14 04:53:27;;;;;;;5.07;3.47;;;;;;;0.42;85.99;101903.06;5006285;28;20196;-83
2021/04/14 04:55:54;;;;;;;5.97;3.70;;;;;;;0.44;85.82;101906.56;5006598;28;20232;-83
2021/04/14 04:58:20;;;;;;;7.47;3.87;;;;;;;0.38;86.16;101902.03;5007096;28;20219;-83
2021/04/14 05:00:47;;;;;;;3.30;3.00;;;;;;;0.40;86.45;101904.66;5006440;28;20199;-82
2021/04/14 05:03:15;;;;;;;8.70;3.87;;;;;;;0.43;86.33;101904.78;5005694;28;20294;-82
2021/04/14 05:05:42;;;;;;;3.63;3.33;;;;;;;0.47;86.34;101914.41;5005106;28;20227;-83
2021/04/14 05:08:10;;;;;;;5.40;3.87;;;;;;;0.48;86.08;101911.03;5004953;28;20204;-82
2021/04/14 05:10:36;;;;;;;5.50;3.10;;;;;;;0.44;86.03;101908.22;5006051;28;20227;-82
2021/04/14 05:13:04;;;;;;;6.50;3.07;;;;;;;0.48;86.31;101915.31;5005302;28;20230;-83
2021/04/14 05:15:32;;;;;;;5.90;3.83;;;;;;;0.45;86.17;101910.00;5006032;28;20231;-82
2021/04/14 05:17:59;;;;;;;6.03;4.67;;;;;;;0.47;86.54;101914.41;5005407;28;20207;-83
2021/04/14 05:20:26;;;;;;;6.30;3.90;;;;;;;0.57;86.13;101918.28;5006658;28;20207;-81
2021/04/14 05:22:52;;;;;;;4.47;3.27;;;;;;;0.69;85.83;101926.53;5004965;28;20227;-83
2021/04/14 05:25:21;;;;;;;5.27;3.60;;;;;;;0.75;86.02;101931.97;5006318;28;20207;-82
2021/04/14 05:27:47;;;;;;;6.83;4.20;;;;;;;0.71;85.77;101937.75;5006125;28;20223;-82
2021/04/14 05:30:14;;;;;;;7.87;4.90;;;;;;;0.69;85.70;101931.66;5004780;28;20227;-84
2021/04/14 05:32:41;;;;;;;4.83;4.00;;;;;;;0.67;85.85;101928.16;5005268;28;20254;-82
2021/04/14 05:35:08;;;;;;;7.60;3.73;;;;;;;0.71;85.55;101934.31;5005702;28;20883;-83
2021/04/14 05:37:34;;;;;;;5.53;4.07;;;;;;;0.67;85.64;101935.84;5005276;28;20222;-84
2021/04/14 05:40:01;;;;;;;7.20;4.53;;;;;;;0.67;85.78;101938.44;5005364;28;20208;-82
2021/04/14 05:42:27;;;;;;;7.37;5.00;;;;;;;0.65;86.29;101929.78;5004654;28;20235;-83
2021/04/14 05:44:53;;;;;;;13.43;5.10;;;;;;;0.67;86.01;101938.44;5005024;28;20213;-83
2021/04/14 05:47:19;;;;;;;5.27;3.57;;;;;;;0.67;86.23;101940.13;5005791;28;20305;-83
2021/04/14 05:49:45;;;;;;;5.37;3.87;;;;;;;0.68;86.13;101936.75;5005430;28;20247;-83
2021/04/14 05:52:11;;;;;;;7.73;4.97;;;;;;;0.73;86.33;101945.53;5004970;28;20505;-82
2021/04/14 05:54:37;;;;;;;7.10;4.17;;;;;;;0.76;86.21;101945.69;5004977;28;20212;-83
2021/04/14 05:57:04;;;;;;;5.57;4.87;;;;;;;0.79;86.01;101948.38;5006906;28;20212;-82
2021/04/14 05:59:29;;;;;;;6.47;4.10;;;;;;;0.82;86.11;101945.97;5009980;28;20211;-83
2021/04/14 06:01:55;;;;;;;7.80;4.43;;;;;;;0.91;86.00;101948.97;5008516;28;20318;-83
2021/04/14 06:04:21;;;;;;;6.30;4.47;;;;;;;0.95;85.96;101949.97;5008916;28;20211;-83
2021/04/14 06:06:47;;;;;;;6.27;4.23;;;;;;;1.05;85.10;101946.09;5008922;28;20271;-82
2021/04/14 06:09:13;;;;;;;5.77;4.47;;;;;;;1.12;85.49;101951.59;5009259;28;20215;-83
2021/04/14 06:11:40;;;;;;;7.13;4.57;;;;;;;1.16;85.35;101952.59;5008712;28;20243;-83
2021/04/14 06:14:07;;;;;;;4.93;4.53;;;;;;;1.21;85.38;101953.69;5009015;28;20187;-83
2021/04/14 06:16:33;;;;;;;5.23;4.73;;;;;;;1.26;85.32;101961.59;5008231;28;20208;-83
2021/04/14 06:19:00;;;;;;;6.93;5.00;;;;;;;1.31;85.20;101953.28;5008205;28;20362;-82
2021/04/14 06:21:27;;;;;;;5.57;4.37;;;;;;;1.46;85.24;101952.19;5008640;28;20231;-82
2021/04/14 06:23:53;;;;;;;5.17;4.30;;;;;;;1.48;85.90;101958.25;5008136;28;20218;-82
2021/04/14 06:26:28;;;;;;;5.03;4.30;;;;;;;1.47;85.29;101964.25;5007276;28;20246;-81
2021/04/14 06:28:54;;;;;;;6.63;4.27;;;;;;;1.56;85.91;101959.47;5004751;28;20268;-80
2021/04/14 06:31:22;;;;;;;5.40;4.37;;;;;;;1.65;84.94;101959.88;5006819;28;20223;-80
2021/04/14 06:33:50;;;;;;;5.67;4.00;;;;;;;1.74;85.19;101956.78;5005228;28;20215;-80
2021/04/14 06:36:16;;;;;;;4.40;4.00;;;;;;;1.85;85.51;101957.25;5006241;28;20207;-81
2021/04/14 06:38:45;;;;;;;5.93;3.87;;;;;;;2.07;84.88;101956.41;5007197;28;20238;-82
2021/04/14 06:41:38;;;;;;;5.00;3.30;;;;;;;2.29;84.22;101945.28;5007606;28;20230;-82
2021/04/14 06:44:12;;;;;;;3.93;3.60;;;;;;;2.49;83.76;101944.34;5007588;28;20306;-81
2021/04/14 06:46:41;;;;;;;5.03;4.17;;;;;;;2.72;82.98;101950.38;5007596;28;20218;-80
2021/04/14 06:49:13;;;;;;;4.87;3.17;;;;;;;2.96;82.29;101939.22;5007851;28;20202;-81
2021/04/14 06:51:44;;;;;;;5.60;2.90;;;;;;;3.01;81.98;101945.41;5008113;28;20238;-81
2021/04/14 06:54:19;;;;;;;6.40;2.80;;;;;;;2.96;80.37;101947.81;5007213;28;20232;-81
2021/04/14 06:56:50;;;;;;;3.50;2.30;;;;;;;2.87;80.73;101944.03;5007025;28;20204;-81
2021/04/14 06:59:20;;;;;;;3.43;2.50;;;;;;;2.88;81.51;101945.78;5007762;28;20226;-81
2021/04/14 07:01:49;;;;;;;3.70;2.90;;;;;;;2.87;81.81;101941.44;5006951;28;20223;-81
2021/04/14 07:04:18;;;;;;;6.97;3.53;;;;;;;2.89;81.65;101948.41;5007257;28;20185;-82
2021/04/14 07:06:47;;;;;;;5.83;2.93;;;;;;;2.98;81.24;101941.00;5006321;28;20218;-81
2021/04/14 07:09:22;;;;;;;5.97;2.97;;;;;;;3.04;81.52;101939.50;5007196;28;20213;-81
2021/04/14 07:11:48;;;;;;;5.80;3.10;;;;;;;3.24;81.48;101943.66;5006410;28;20890;-82
2021/04/14 07:14:16;;;;;;;3.50;2.90;;;;;;;2.98;81.04;101934.97;5006240;28;20218;-81
2021/04/14 07:17:04;;;;;;;5.23;2.67;;;;;;;3.20;81.38;101930.59;5006031;28;20208;-81
2021/04/14 07:19:47;;;;;;;7.07;3.30;;;;;;;3.29;81.12;101936.97;5007248;28;20209;-82
2021/04/14 07:22:21;;;;;;;5.80;3.10;;;;;;;3.36;80.41;101936.31;5006704;28;20231;-82
2021/04/14 07:24:52;;;;;;;4.47;3.23;;;;;;;3.54;79.94;101932.63;5005574;28;20448;-82
2021/04/14 07:27:24;;;;;;;5.70;3.00;;;;;;;3.56;79.60;101928.41;5006983;28;20201;-82
2021/04/14 07:29:52;;;;;;;6.67;3.17;;;;;;;3.59;78.94;101931.09;5005396;28;20208;-81
2021/04/14 07:32:25;;;;;;;8.93;3.50;;;;;;;3.65;80.06;101927.81;5005731;28;20230;-81
2021/04/14 07:35:09;;;;;;;7.53;3.43;;;;;;;3.85;79.45;101923.34;5006651;28;20210;-81
2021/04/14 07:37:41;;;;;;;4.30;3.13;;;;;;;3.98;78.85;101928.94;5004831;28;20190;-82
2021/04/14 07:40:17;;;;;;;5.63;3.10;;;;;;;4.08;78.71;101921.47;5005526;28;20217;-82
2021/04/14 07:42:57;;;;;;;9.20;3.43;;;;;;;4.11;78.35;101927.63;5005171;28;20240;-82
2021/04/14 07:45:28;;;;;;;4.70;3.30;;;;;;;4.11;78.15;101927.63;5007275;28;20205;-81
2021/04/14 07:47:59;;;;;;;7.60;3.53;;;;;;;4.24;77.50;101921.13;5005405;28;20744;-82
2021/04/14 07:50:31;;;;;;;6.50;3.23;;;;;;;4.19;76.76;101917.53;5007395;28;20522;-81
2021/04/14 07:52:57;;;;;;;4.23;2.63;;;;;;;4.20;77.11;101921.84;5002257;28;20258;-82
2021/04/14 07:55:32;;;;;;;5.37;3.00;;;;;;;4.14;76.28;101927.72;5006300;28;20215;-82
2021/04/14 07:58:08;;;;;;;5.07;3.20;;;;;;;4.11;76.13;101925.03;5005923;28;20217;-82
2021/04/14 08:00:36;;;;;;;9.77;3.63;;;;;;;4.26;76.90;101923.75;5006128;28;20245;-82
2021/04/14 08:03:17;;;;;;;5.80;2.77;;;;;;;4.41;76.53;101923.34;5002886;28;20267;-81
2021/04/14 08:05:43;;;;;;;7.30;3.20;;;;;;;4.48;76.22;101927.84;5004924;28;20210;-81
2021/04/14 08:08:14;;;;;;;16.83;3.53;;;;;;;4.58;76.03;101927.31;5003246;28;20233;-80
2021/04/14 08:10:41;;;;;;;7.03;3.57;;;;;;;5.02;74.50;101921.69;5003411;28;20241;-80
2021/04/14 08:13:12;;;;;;;5.97;3.20;;;;;;;5.28;73.91;101914.63;5000520;28;20253;-81
2021/04/14 08:15:42;;;;;;;6.53;3.70;;;;;;;5.47;73.77;101916.84;5002362;28;20220;-80
2021/04/14 08:18:15;;;;;;;6.13;3.13;;;;;;;5.53;71.20;101914.41;5001732;28;20221;-81
2021/04/14 08:20:43;;;;;;;5.17;2.80;;;;;;;5.43;70.29;101904.66;5002833;28;20217;-81
2021/04/14 08:23:12;;;;;;;5.53;3.23;;;;;;;5.44;70.99;101908.13;4988827;28;20237;-78
2021/04/14 08:25:42;;;;;;;5.97;3.30;;;;;;;5.15;71.70;101919.47;4983780;28;20206;-78
2021/04/14 08:28:08;;;;;;;6.10;3.73;;;;;;;5.15;71.09;101910.81;4985352;28;20218;-80
2021/04/14 08:30:34;;;;;;;5.50;3.33;;;;;;;4.97;70.98;101911.19;4986078;28;20240;-78
2021/04/14 08:33:03;;;;;;;7.17;4.10;;;;;;;5.02;71.85;101912.19;4984860;28;20668;-78
2021/04/14 08:35:33;;;;;;;4.53;2.63;;;;;;;5.16;69.97;101912.56;4986025;28;20298;-78
2021/04/14 08:38:02;;;;;;;6.53;3.60;;;;;;;5.35;69.32;101914.81;4985427;28;20211;-78
2021/04/14 08:40:30;;;;;;;9.87;3.50;;;;;;;5.10;70.24;101912.41;4985639;28;20430;-77
2021/04/14 08:43:05;;;;;;;7.10;3.50;;;;;;;4.90;71.52;101912.72;4984234;28;20237;-78
2021/04/14 08:45:33;;;;;;;5.40;3.40;;;;;;;5.01;71.85;101914.72;4986832;28;20287;-80
2021/04/14 08:48:06;;;;;;;7.47;3.10;;;;;;;4.93;71.00;101915.38;4999581;28;20215;-80
2021/04/14 08:50:36;;;;;;;4.13;3.13;;;;;;;4.84;72.09;101917.72;4999981;28;20758;-82
2021/04/14 08:53:09;;;;;;;7.17;2.63;;;;;;;4.90;72.18;101917.03;5001375;28;20225;-81
2021/04/14 08:55:37;;;;;;;6.73;2.80;;;;;;;4.77;70.47;101919.25;5001663;28;20210;-80
2021/04/14 08:58:03;;;;;;;5.13;2.97;;;;;;;4.80;70.35;101918.47;5001119;28;20209;-80
2021/04/14 09:00:29;;;;;;;5.80;3.70;;;;;;;4.88;71.17;101916.13;4999749;28;20241;-80
2021/04/14 09:03:00;;;;;;;6.10;2.90;;;;;;;5.00;70.64;101916.44;5001297;28;20234;-81
2021/04/14 09:05:28;;;;;;;4.00;2.30;;;;;;;5.20;69.14;101914.41;4998730;28;21758;-81
2021/04/14 09:07:56;;;;;;;9.30;3.10;;;;;;;5.38;69.22;101914.00;5001071;28;20425;-81
2021/04/14 09:10:40;;;;;;;7.23;2.80;;;;;;;5.49;67.58;101904.81;5001218;28;20241;-82
2021/04/14 09:13:08;;;;;;;4.27;2.03;;;;;;;5.14;67.21;101912.53;4999596;28;20241;-81
2021/04/14 09:15:52;;;;;;;3.50;2.07;;;;;;;5.03;66.59;101907.88;5001382;28;20207;-81
2021/04/14 09:18:27;;;;;;;6.77;2.30;;;;;;;5.05;66.89;101901.03;5001446;28;20214;-82
2021/04/14 09:21:06;;;;;;;2.03;1.70;;;;;;;5.20;65.05;101900.59;5000563;28;20398;-82
2021/04/14 09:23:36;;;;;;;2.93;1.67;;;;;;;5.38;65.64;101895.88;5000014;28;20225;-82
2021/04/14 09:26:12;;;;;;;5.10;1.97;;;;;;;5.62;65.09;101887.00;5000326;28;20199;-82
2021/04/14 09:28:46;;;;;;;4.70;2.03;;;;;;;5.84;63.99;101889.25;5000818;28;20400;-81
2021/04/14 09:31:16;;;;;;;4.53;1.63;;;;;;;5.89;62.98;101887.66;5000334;28;20227;-81
2021/04/14 09:33:46;;;;;;;2.47;1.30;;;;;;;5.93;59.57;101886.91;5001735;28;20531;-81
2021/04/14 09:36:14;;;;;;;4.13;1.53;;;;;;;6.21;60.51;101879.78;5003543;28;20211;-82
2021/04/14 09:38:47;;;;;;;2.87;1.23;;;;;;;6.48;59.69;101886.41;5000851;28;20219;-82
2021/04/14 09:41:35;;;;;;;3.27;1.73;;;;;;;6.63;59.20;101880.66;4999163;28;20229;-82
2021/04/14 09:44:15;;;;;;;4.30;2.40;;;;;;;5.99;63.38;101887.91;5003234;28;20214;-81
2021/04/14 09:46:54;;;;;;;6.57;2.13;;;;;;;5.65;63.33;101885.38;5003349;28;20219;-81
2021/04/14 09:49:34;;;;;;;3.40;1.57;;;;;;;5.56;64.12;101890.31;5001397;28;20211;-82
2021/04/14 09:52:02;;;;;;;3.57;1.70;;;;;;;5.44;64.23;101890.88;5002153;28;20822;-81
2021/04/14 09:54:32;;;;;;;3.30;2.00;;;;;;;5.45;65.38;101889.16;5003299;28;20584;-82
2021/04/14 09:57:00;;;;;;;4.07;2.23;;;;;;;5.47;64.86;101878.00;5003655;28;20221;-82
2021/04/14 09:59:31;;;;;;;3.33;1.90;;;;;;;5.32;65.20;101880.19;5003349;28;20257;-83
2021/04/14 10:02:00;;;;;;;3.17;1.93;;;;;;;5.44;65.14;101872.75;5009245;28;20233;-83
2021/04/14 10:04:27;;;;;;;3.90;1.90;;;;;;;5.31;65.47;101874.16;5009358;28;20309;-83
2021/04/14 10:06:56;;;;;;;4.33;1.90;;;;;;;5.37;64.41;101874.31;5009691;28;20217;-84
2021/04/14 10:09:24;;;;;;;6.10;1.93;;;;;;;5.54;64.44;101863.50;5009279;28;20217;-82
2021/04/14 10:11:52;;;;;;;3.67;2.07;;;;;;;5.66;62.41;101868.09;5009089;28;20244;-82
2021/04/14 10:14:21;;;;;;;3.90;2.50;;;;;;;5.70;65.88;101862.16;5009190;28;20206;-82
2021/04/14 10:16:48;;;;;;;4.53;2.80;;;;;;;5.92;66.92;101855.75;5009494;28;20209;-82
2021/04/14 10:19:27;;;;;;;4.33;2.60;;;;;;;6.08;65.86;101865.66;5008189;28;20205;-82
2021/04/14 10:21:53;;;;;;;9.07;2.37;;;;;;;6.16;63.03;101864.13;5005818;28;20231;-82
2021/04/14 10:24:20;;;;;;;2.07;1.23;;;;;;;6.11;61.08;101863.13;5002360;28;20228;-79
2021/04/14 10:26:52;;;;;;;1.97;1.57;;;;;;;5.99;61.49;101867.19;4998379;28;20218;-79
2021/04/14 10:29:27;;;;;;;3.50;1.30;;;;;;;5.82;59.88;101867.63;5001797;28;20207;-80
2021/04/14 10:31:55;;;;;;;1.80;1.40;;;;;;;5.89;61.59;101874.72;4995489;28;20234;-77
2021/04/14 10:34:27;;;;;;;2.03;1.43;;;;;;;5.90;63.25;101884.22;4994029;28;20239;-79
2021/04/14 10:36:56;;;;;;;2.50;0.83;;;;;;;6.04;64.30;101881.97;4994470;28;20207;-79
2021/04/14 10:39:29;;;;;;;1.17;0.97;;;;;;;6.00;65.93;101889.66;4997542;28;20212;-79
2021/04/14 10:41:56;;;;;;;1.00;0.90;;;;;;;5.85;65.65;101883.25;4996827;28;20227;-79
2021/04/14 10:44:27;;;;;;;4.30;1.40;;;;;;;5.73;66.74;101890.72;4994378;28;20226;-79
2021/04/14 10:46:59;;;;;;;2.40;1.47;;;;;;;5.18;69.63;101906.59;4997522;28;20207;-78
2021/04/14 10:49:29;;;;;;;2.73;2.40;;;;;;;4.64;73.08;101911.09;4994099;28;20221;-77
2021/04/14 10:52:00;;;;;;;2.90;2.07;;;;;;;3.75;77.00;101899.78;4992208;28;20242;-78
2021/04/14 10:54:29;;;;;;;3.10;2.80;;;;;;;3.22;79.10;101897.97;4992765;28;20256;-77
2021/04/14 10:57:06;;;;;;;3.40;3.10;;;;;;;3.10;79.97;101885.53;4993503;28;20208;-77
2021/04/14 10:59:33;;;;;;;3.17;2.53;;;;;;;3.18;81.77;101881.50;4996811;28;20695;-76
2021/04/14 11:02:00;;;;;;;2.10;2.00;;;;;;;3.26;79.79;101874.03;4997229;28;20222;-78
2021/04/14 11:04:35;;;;;;;2.27;1.47;;;;;;;3.60;78.89;101873.44;4997492;28;20251;-78
2021/04/14 11:07:04;;;;;;;1.60;1.50;;;;;;;4.13;77.67;101863.06;4997850;28;20209;-78
2021/04/14 11:09:33;;;;;;;3.83;1.47;;;;;;;4.55;76.84;101860.00;4999426;28;20210;-79
2021/04/14 11:12:05;;;;;;;3.37;1.70;;;;;;;5.08;78.04;101867.50;4998517;28;20235;-78
2021/04/14 11:14:32;;;;;;;1.80;1.10;;;;;;;5.33;71.71;101849.19;4995212;28;21726;-79
2021/04/14 11:16:59;;;;;;;2.43;1.63;;;;;;;5.41;72.97;101845.88;4999059;28;20280;-78
2021/04/14 11:19:26;;;;;;;2.60;2.03;;;;;;;5.88;72.50;101838.38;4997180;28;20272;-77
2021/04/14 11:22:00;;;;;;;3.50;1.70;;;;;;;5.37;70.54;101843.22;4995664;28;20226;-78
2021/04/14 11:24:26;;;;;;;3.83;2.23;;;;;;;5.92;71.75;101841.06;4995473;28;20217;-78
2021/04/14 11:26:55;;;;;;;2.27;2.07;;;;;;;6.01;69.14;101837.88;4994948;28;20210;-79
2021/04/14 11:29:24;;;;;;;4.73;2.40;;;;;;;5.94;70.37;101831.59;4995403;28;20237;-78
2021/04/14 11:31:53;;;;;;;3.60;2.23;;;;;;;6.60;68.85;101837.38;4995277;28;20231;-78
2021/04/14 11:34:22;;;;;;;3.93;2.30;;;;;;;7.42;68.57;101818.06;4995483;28;20218;-78
2021/04/14 11:36:58;;;;;;;2.97;1.90;;;;;;;7.70;61.56;101820.25;4996472;28;20533;-78
2021/04/14 11:39:25;;;;;;;4.43;2.73;;;;;;;9.07;62.66;101815.88;4996386;28;20199;-80
2021/04/14 11:42:04;;;;;;;2.87;1.90;;;;;;;9.93;54.87;101822.66;4997861;28;20231;-79